Flight Information

DEPARTURE
ALBUQUERQUE, NM
Elevation:
5354
Runways:
12/30 - 6000x150 - CONC-G
3/21 - 10000x150 - CONC-G
8/26 - 13793x150 - CONC-G
Active PE Departure:
3 -
Current PE ATIS:
O
Altimeter:
29.85
Remarks:
V F R DEPARTURES CONTACT CLEARANCE DELIVERY, ADVISE ON COURSE HEADING, ALTITUDE, AND IF FLIGHT FOLLOWING IS REQUESTED. NOTICE TO AIRMEN RUNWAY 8 2 6 CLOSED.
ATIS:
118 505-856-4928
Clearance Delivery:
119.2
Ground:
121.9
Tower:
ALBUQUERQUE TOWER 120.3
DESTINATION
,
Elevation:
TPA:
1000 (est.)


6211.8 NM80° True-12° Var68° HDG

Flight Plan:
(click to file on line)

1. Type
2. Aircraft Identification
3. Aircraft Type / Special Equipment
4. True Airspeed
kts
5. Departure Airport
(ICAO code)
6. Arriving Airport
(ICAO code)
7. Cruising Altitude
ft
8. Alternate Airport
(ICAO code)
9. Route of Flight
10. Remarks


00:00:00 Departure ATIS: Destination ATIS:

Clearance Limit:
Route:
Altitude: Expect in minutes
Frequency:
Transponder: (7500 Hijack / 7600 Lost Comms / 7700 Emergency)


KABQ 110352Z 36009KT 10SM CLR 18/M17 A2985 RMK AO2 SLP056 T01781167 $
Time: 2021-04-11T03:52:00Z
1618116559
Winds: 360 @ 9 kts
Visibility: 10.0 sm
Clouds (AGL): CLR
Temperature: 17.8 C
Dew Point: -16.7 C
Pressure: 29.84941 in Hgbr


Notes:

Data extracted from FAA Digital Chart Supplement. Effective: 0901Z Thursday, Feb 25, 2021 to 0901Z Thursday, APR 22, 2021
Current ATIS data is provided courtisy of PilotEdge.